createdAt,value
2023-04-24T00:00:34.813Z,30.80
2023-04-24T00:03:02.295Z,34.50
2023-04-24T00:14:18.161Z,25.30
2023-04-24T00:16:47.855Z,25.10
2023-04-24T00:19:15.142Z,34.60
2023-04-24T00:21:43.141Z,31.70
2023-04-24T00:24:12.035Z,24.80
2023-04-24T00:26:46.246Z,28.00
2023-04-24T00:29:14.953Z,27.80
2023-04-24T00:31:42.292Z,27.40
2023-04-24T00:34:14.995Z,30.60
2023-04-24T00:36:43.090Z,30.90
2023-04-24T00:39:10.156Z,29.40
2023-04-24T00:41:37.390Z,29.10
2023-04-24T00:44:08.128Z,29.60
2023-04-24T00:46:36.401Z,31.10
2023-04-24T00:49:03.882Z,33.60
2023-04-24T00:51:38.164Z,27.60
2023-04-24T00:54:07.617Z,26.70
2023-04-24T00:56:37.267Z,32.20
2023-04-24T00:59:05.844Z,28.90
2023-04-24T01:01:34.037Z,29.60
2023-04-24T01:04:01.758Z,28.90
2023-04-24T01:06:29.689Z,34.00
2023-04-24T01:08:57.282Z,27.80
2023-04-24T01:11:24.560Z,29.70
2023-04-24T01:13:52.576Z,25.00
2023-04-24T01:16:22.374Z,28.80
2023-04-24T01:18:53.102Z,32.90
2023-04-24T01:21:21.125Z,30.20
2023-04-24T01:23:51.256Z,28.60
2023-04-24T01:26:21.348Z,31.70
2023-04-24T01:28:49.112Z,33.60
2023-04-24T01:31:16.512Z,39.80
2023-04-24T01:33:44.956Z,25.90
2023-04-24T01:36:12.919Z,32.60
2023-04-24T01:38:40.346Z,29.10
2023-04-24T01:41:07.551Z,34.90
2023-04-24T01:43:35.201Z,29.10
2023-04-24T01:46:04.604Z,32.50
2023-04-24T01:48:32.137Z,30.00
2023-04-24T01:50:59.315Z,28.30
2023-04-24T01:53:26.424Z,31.20
2023-04-24T01:55:53.595Z,28.80
2023-04-24T01:58:21.142Z,29.00
2023-04-24T02:00:48.458Z,28.00
2023-04-24T02:03:16.135Z,28.90
2023-04-24T02:05:47.119Z,29.40
2023-04-24T02:08:14.321Z,30.50
2023-04-24T02:10:41.526Z,29.20
2023-04-24T02:13:08.837Z,31.90
2023-04-24T02:15:37.716Z,27.70
2023-04-24T02:18:08.057Z,22.90
2023-04-24T02:20:36.679Z,28.90
2023-04-24T02:23:03.727Z,25.60
2023-04-24T02:25:30.952Z,25.60
2023-04-24T02:27:58.084Z,28.30
2023-04-24T02:30:26.801Z,27.60
2023-04-24T02:32:53.925Z,25.50
2023-04-24T02:35:21.519Z,24.50
2023-04-24T02:37:48.775Z,25.40
2023-04-24T02:40:16.084Z,26.60
2023-04-24T02:42:46.072Z,22.30
2023-04-24T02:45:17.309Z,25.40
2023-04-24T02:47:44.695Z,28.30
2023-04-24T02:50:11.996Z,22.80
2023-04-24T02:52:39.661Z,25.10
2023-04-24T02:55:07.192Z,27.90
2023-04-24T02:57:34.447Z,25.50
2023-04-24T03:00:02.078Z,22.10
2023-04-24T03:02:29.418Z,23.40
2023-04-24T03:04:58.282Z,21.00
2023-04-24T03:07:27.664Z,25.60
2023-04-24T03:09:54.816Z,25.90
2023-04-24T03:12:24.977Z,30.20
2023-04-24T03:14:52.204Z,25.40
2023-04-24T03:17:20.136Z,29.80
2023-04-24T03:19:47.324Z,25.90
2023-04-24T03:22:15.900Z,28.80
2023-04-24T03:24:43.614Z,26.90
2023-04-24T03:27:11.529Z,26.90
2023-04-24T03:29:59.046Z,25.80
2023-04-24T03:32:36.151Z,25.60
2023-04-24T03:35:04.678Z,27.60
2023-04-24T03:37:33.171Z,28.10
2023-04-24T03:40:10.926Z,29.80
2023-04-24T03:42:39.542Z,25.50
2023-04-24T03:45:07.773Z,30.30
2023-04-24T03:47:37.314Z,28.30
2023-04-24T03:50:05.247Z,32.90
2023-04-24T03:52:33.356Z,29.70
2023-04-24T03:55:00.521Z,27.70
2023-04-24T03:57:28.169Z,26.90
2023-04-24T04:00:07.667Z,31.80
2023-04-24T04:02:42.169Z,28.80
2023-04-24T04:05:09.982Z,28.20
2023-04-24T04:07:37.761Z,25.50
2023-04-24T04:10:05.481Z,32.50
2023-04-24T04:12:32.763Z,31.20
2023-04-24T04:15:00.192Z,32.60
2023-04-24T04:17:28.163Z,27.90
2023-04-24T04:19:56.685Z,25.80
2023-04-24T04:22:24.080Z,25.90
2023-04-24T04:24:55.939Z,27.30
2023-04-24T04:27:24.546Z,30.80
2023-04-24T04:30:05.721Z,27.70
2023-04-24T04:32:39.907Z,27.90
2023-04-24T04:35:07.239Z,23.70
2023-04-24T04:37:34.629Z,22.00
2023-04-24T04:40:29.805Z,22.70
2023-04-24T04:45:31.998Z,25.20
2023-04-24T04:48:20.100Z,24.70
2023-04-24T04:50:47.303Z,27.50
2023-04-24T04:53:15.229Z,26.50
2023-04-24T04:55:42.858Z,28.50
2023-04-24T04:58:15.568Z,26.10
2023-04-24T05:00:43.952Z,22.60
2023-04-24T05:03:22.515Z,28.80
2023-04-24T05:05:55.851Z,29.60
2023-04-24T05:08:27.396Z,34.00
2023-04-24T05:10:55.994Z,42.80
2023-04-24T05:13:35.509Z,50.00
2023-04-24T05:16:08.257Z,36.90
2023-04-24T05:18:35.573Z,36.80
2023-04-24T05:21:02.892Z,34.60
2023-04-24T05:23:30.366Z,34.40
2023-04-24T05:25:57.868Z,27.90
2023-04-24T05:28:29.624Z,29.70
2023-04-24T05:31:05.892Z,34.90
2023-04-24T05:33:33.213Z,27.80
2023-04-24T05:36:00.502Z,29.00
2023-04-24T05:38:27.913Z,24.70
2023-04-24T05:40:56.388Z,21.10
2023-04-24T05:43:23.753Z,20.40
2023-04-24T05:45:51.128Z,22.70
2023-04-24T05:48:18.938Z,22.00
2023-04-24T05:50:46.581Z,23.30
2023-04-24T05:53:13.906Z,21.80
2023-04-24T05:55:41.294Z,27.80
2023-04-24T05:58:08.488Z,21.80
2023-04-24T06:00:36.651Z,28.40
2023-04-24T06:03:05.982Z,20.50
2023-04-24T06:05:33.452Z,30.70
2023-04-24T06:08:03.449Z,21.40
2023-04-24T06:10:33.866Z,17.30
2023-04-24T06:13:01.747Z,30.30
2023-04-24T06:15:31.543Z,30.70
2023-04-24T06:18:02.750Z,22.10
2023-04-24T06:20:29.983Z,18.30
2023-04-24T06:22:57.210Z,20.80
2023-04-24T06:25:26.200Z,19.10
2023-04-24T06:27:53.684Z,20.60
2023-04-24T06:30:21.002Z,18.60
2023-04-24T06:32:48.262Z,18.60
2023-04-24T06:35:16.320Z,19.90
2023-04-24T06:37:44.647Z,21.40
2023-04-24T06:40:11.926Z,14.10
2023-04-24T06:42:39.045Z,17.60
2023-04-24T06:45:09.200Z,12.80
2023-04-24T06:47:36.552Z,14.70
2023-04-24T06:50:03.839Z,12.50
2023-04-24T06:52:34.056Z,11.90
2023-04-24T06:55:02.396Z,14.80
2023-04-24T06:57:29.730Z,18.80
2023-04-24T06:59:56.927Z,14.20
2023-04-24T07:02:24.169Z,11.90
2023-04-24T07:04:51.454Z,13.60
2023-04-24T07:07:18.577Z,10.50
2023-04-24T07:09:46.743Z,12.60
2023-04-24T07:12:14.699Z,5.10
2023-04-24T07:14:42.128Z,13.00
2023-04-24T07:17:09.461Z,11.40
2023-04-24T07:19:36.815Z,11.80
2023-04-24T07:22:04.867Z,8.00
2023-04-24T07:24:33.755Z,8.70
2023-04-24T07:27:02.496Z,12.50
2023-04-24T07:29:29.870Z,7.50
2023-04-24T07:31:57.793Z,7.30
2023-04-24T07:34:25.217Z,4.70
2023-04-24T07:36:53.591Z,8.90
2023-04-24T07:39:20.976Z,8.20
2023-04-24T07:41:48.218Z,7.30
2023-04-24T07:44:15.563Z,12.30
2023-04-24T07:46:42.894Z,10.50
2023-04-24T07:49:13.732Z,9.20
2023-04-24T07:51:43.138Z,10.80
2023-04-24T07:54:10.838Z,8.40
2023-04-24T07:56:40.445Z,15.50
2023-04-24T07:59:07.804Z,7.40
2023-04-24T08:01:34.933Z,6.40
2023-04-24T08:04:02.309Z,11.60
2023-04-24T08:06:31.873Z,4.80
2023-04-24T08:08:59.294Z,9.70
2023-04-24T08:11:26.841Z,8.50
2023-04-24T08:13:54.187Z,13.50
2023-04-24T08:16:21.438Z,8.00
2023-04-24T08:18:49.077Z,6.60
2023-04-24T08:21:18.521Z,7.30
2023-04-24T08:23:46.736Z,6.00
2023-04-24T08:26:14.239Z,8.90
2023-04-24T08:28:41.432Z,4.90
2023-04-24T08:31:09.278Z,9.10
2023-04-24T08:33:36.780Z,7.90
2023-04-24T08:36:07.319Z,7.80
2023-04-24T08:38:34.993Z,10.60
2023-04-24T08:41:02.424Z,9.50
2023-04-24T08:43:30.016Z,14.50
2023-04-24T08:45:58.151Z,6.00
2023-04-24T08:48:30.870Z,8.20
2023-04-24T08:51:00.090Z,11.70
2023-04-24T08:53:27.778Z,14.40
2023-04-24T08:55:55.617Z,15.80
2023-04-24T08:58:23.462Z,7.00
2023-04-24T09:00:51.041Z,10.40
2023-04-24T09:03:18.327Z,5.70
2023-04-24T09:05:47.160Z,6.30
2023-04-24T09:08:15.037Z,15.50
2023-04-24T09:10:42.360Z,10.60
2023-04-24T09:13:13.037Z,14.30
2023-04-24T09:15:41.235Z,11.70
2023-04-24T09:18:08.372Z,8.60
2023-04-24T09:20:38.724Z,10.20
2023-04-24T09:23:06.476Z,6.60
2023-04-24T09:25:34.558Z,6.30
2023-04-24T09:28:03.007Z,9.30
2023-04-24T09:30:30.221Z,8.20
2023-04-24T09:33:16.834Z,10.60
2023-04-24T09:35:44.720Z,9.70
2023-04-24T09:38:12.109Z,7.70
2023-04-24T09:40:41.445Z,13.40
2023-04-24T09:43:11.917Z,7.20
2023-04-24T09:45:39.704Z,11.60
2023-04-24T09:48:09.148Z,4.40
2023-04-24T09:50:37.032Z,3.50
2023-04-24T09:53:05.559Z,7.40
2023-04-24T09:55:33.964Z,5.50
2023-04-24T09:58:01.583Z,5.10
2023-04-24T10:00:30.353Z,6.60
2023-04-24T10:03:04.903Z,16.00
2023-04-24T10:05:33.694Z,7.20
2023-04-24T10:08:02.335Z,9.50
2023-04-24T10:10:30.385Z,9.80
2023-04-24T10:12:59.589Z,7.70
2023-04-24T10:15:27.480Z,10.00
2023-04-24T10:17:56.936Z,11.50
2023-04-24T10:20:24.931Z,8.70
2023-04-24T10:22:52.852Z,10.00
2023-04-24T10:25:25.347Z,7.40
2023-04-24T10:27:53.108Z,6.40
2023-04-24T10:30:21.108Z,7.90
2023-04-24T10:32:48.603Z,9.50
2023-04-24T10:35:17.056Z,5.20
2023-04-24T10:37:48.244Z,12.10
2023-04-24T10:40:20.950Z,11.30
2023-04-24T10:42:48.572Z,16.10
2023-04-24T10:45:20.447Z,11.40
2023-04-24T10:47:57.786Z,9.80
2023-04-24T10:50:25.529Z,5.00
2023-04-24T10:52:54.139Z,9.90
2023-04-24T10:55:51.522Z,15.70
2023-04-24T10:58:38.272Z,8.90
2023-04-24T11:01:05.697Z,6.00
2023-04-24T11:03:34.056Z,11.30
2023-04-24T11:06:01.486Z,7.60
2023-04-24T11:08:30.011Z,7.60
2023-04-24T11:11:11.547Z,6.70
2023-04-24T11:13:57.808Z,7.60
2023-04-24T11:16:30.295Z,3.70
2023-04-24T11:19:03.719Z,7.70
2023-04-24T11:21:46.916Z,9.50
2023-04-24T11:24:23.297Z,8.70
2023-04-24T11:26:52.582Z,7.40
2023-04-24T11:29:22.278Z,12.70
2023-04-24T11:31:52.493Z,9.90
2023-04-24T11:34:19.839Z,6.50
2023-04-24T11:36:47.384Z,15.00
2023-04-24T11:39:15.113Z,7.60
2023-04-24T11:41:42.360Z,5.30
2023-04-24T11:44:10.257Z,5.00
2023-04-24T11:46:39.346Z,9.30
2023-04-24T11:49:06.902Z,10.40
2023-04-24T11:51:40.634Z,13.40
2023-04-24T11:54:15.538Z,12.80
2023-04-24T11:56:46.427Z,3.70
2023-04-24T11:59:13.703Z,4.20
2023-04-24T12:01:46.483Z,5.10
2023-04-24T12:04:14.697Z,6.10
2023-04-24T12:07:00.156Z,9.60
2023-04-24T12:09:27.351Z,9.20
2023-04-24T12:11:57.108Z,10.30
2023-04-24T12:14:26.927Z,7.10
2023-04-24T12:16:54.605Z,14.10
2023-04-24T12:19:22.806Z,9.10
2023-04-24T12:22:06.396Z,9.50
2023-04-24T12:24:34.414Z,9.10
2023-04-24T12:27:02.832Z,8.50
2023-04-24T12:29:30.173Z,4.20
2023-04-24T12:31:57.487Z,7.60
2023-04-24T12:34:26.234Z,7.70
2023-04-24T12:36:54.065Z,10.10
2023-04-24T12:42:58.644Z,5.90
2023-04-24T12:45:27.575Z,5.70
2023-04-24T12:47:55.563Z,10.00
2023-04-24T12:50:23.004Z,9.10
2023-04-24T12:52:50.819Z,10.00
2023-04-24T12:55:24.969Z,11.40
2023-04-24T12:57:54.816Z,9.10
2023-04-24T13:00:37.910Z,7.00
2023-04-24T13:04:40.914Z,7.80
2023-04-24T13:07:09.264Z,5.80
2023-04-24T13:09:39.075Z,5.80
2023-04-24T13:12:07.112Z,11.00
2023-04-24T13:14:34.714Z,8.00
2023-04-24T13:17:02.206Z,7.90
2023-04-24T13:19:31.173Z,4.80
2023-04-24T13:22:00.423Z,7.80
2023-04-24T13:24:27.790Z,5.30
2023-04-24T13:26:55.250Z,5.80
2023-04-24T13:29:35.182Z,15.20
2023-04-24T13:32:02.750Z,9.00
2023-04-24T13:34:30.068Z,6.60
2023-04-24T13:36:57.853Z,6.20
2023-04-24T13:39:25.469Z,7.20
2023-04-24T13:41:52.744Z,6.90
2023-04-24T13:44:20.815Z,8.90
2023-04-24T13:46:48.741Z,8.50
2023-04-24T13:49:16.445Z,4.60
2023-04-24T13:51:43.868Z,6.70
2023-04-24T13:54:11.095Z,8.00
2023-04-24T13:56:38.292Z,6.10
2023-04-24T13:59:05.732Z,4.70
2023-04-24T14:01:33.115Z,14.80
2023-04-24T14:04:01.150Z,6.20
2023-04-24T14:06:29.501Z,5.60
2023-04-24T14:08:56.816Z,6.70
2023-04-24T14:11:24.176Z,6.80
2023-04-24T14:13:51.568Z,6.70
2023-04-24T14:16:18.892Z,10.00
2023-04-24T14:18:46.356Z,9.80
2023-04-24T14:21:13.707Z,13.00
2023-04-24T14:23:41.000Z,6.00
2023-04-24T14:26:08.195Z,5.20
2023-04-24T14:28:35.713Z,6.90
2023-04-24T14:31:03.105Z,7.70
2023-04-24T14:33:30.588Z,9.50
2023-04-24T14:35:58.642Z,6.20
2023-04-24T14:38:26.013Z,6.80
2023-04-24T14:41:06.102Z,8.60
2023-04-24T14:43:36.513Z,8.50
2023-04-24T14:46:04.224Z,7.50
2023-04-24T14:48:31.826Z,7.60
2023-04-24T14:50:59.740Z,7.50
2023-04-24T14:53:26.977Z,7.50
2023-04-24T14:55:54.869Z,15.90
2023-04-24T14:58:22.084Z,10.60
2023-04-24T15:00:53.139Z,6.20
2023-04-24T15:03:20.526Z,9.80
2023-04-24T15:05:48.082Z,6.80
2023-04-24T15:08:15.582Z,10.10
2023-04-24T15:10:42.665Z,7.10
2023-04-24T15:13:09.955Z,8.20
2023-04-24T15:15:39.455Z,7.90
2023-04-24T15:18:26.890Z,8.30
2023-04-24T15:20:56.037Z,7.60
2023-04-24T15:23:23.319Z,7.60
2023-04-24T15:25:50.539Z,9.90
2023-04-24T15:28:19.232Z,11.10
2023-04-24T15:30:46.426Z,30.60
2023-04-24T15:33:13.807Z,6.20
2023-04-24T15:35:41.684Z,10.60
2023-04-24T15:38:09.103Z,10.00
2023-04-24T15:40:36.285Z,12.00
2023-04-24T15:43:03.607Z,9.90
2023-04-24T15:45:31.449Z,12.00
2023-04-24T15:47:58.770Z,14.80
2023-04-24T15:50:27.139Z,12.50
2023-04-24T15:52:54.372Z,13.00
2023-04-24T15:55:21.937Z,16.40
2023-04-24T15:57:49.189Z,21.80
2023-04-24T16:00:16.813Z,16.90
2023-04-24T16:02:44.154Z,19.80
2023-04-24T16:05:12.097Z,21.90
2023-04-24T16:07:40.539Z,19.30
2023-04-24T16:10:07.942Z,14.60
2023-04-24T16:12:35.057Z,17.50
2023-04-24T16:15:02.292Z,15.20
2023-04-24T16:17:29.423Z,15.20
2023-04-24T16:19:57.113Z,16.30
2023-04-24T16:22:24.222Z,18.90
2023-04-24T16:24:51.405Z,13.40
2023-04-24T16:27:18.528Z,17.30
2023-04-24T16:29:45.677Z,9.20
2023-04-24T16:32:12.835Z,20.80
2023-04-24T16:34:40.049Z,9.70
2023-04-24T16:37:07.590Z,11.40
2023-04-24T16:39:35.070Z,10.90
2023-04-24T16:42:02.533Z,10.20
2023-04-24T16:44:30.871Z,9.90
2023-04-24T16:46:58.087Z,6.70
2023-04-24T16:49:26.952Z,7.60
2023-04-24T16:51:54.091Z,10.50
2023-04-24T16:54:21.250Z,7.20
2023-04-24T16:56:48.395Z,8.60
2023-04-24T16:59:15.610Z,9.20
2023-04-24T17:01:43.389Z,9.60
2023-04-24T17:04:10.736Z,10.70
2023-04-24T17:06:38.264Z,12.70
2023-04-24T17:09:05.740Z,10.10
2023-04-24T17:11:33.118Z,16.60
2023-04-24T17:14:00.515Z,10.50
2023-04-24T17:16:27.862Z,13.60
2023-04-24T17:18:55.048Z,18.40
2023-04-24T17:21:22.505Z,13.40
2023-04-24T17:23:49.691Z,11.60
2023-04-24T17:26:16.871Z,13.90
2023-04-24T17:28:44.048Z,23.30
2023-04-24T17:31:11.181Z,17.10
2023-04-24T17:33:38.898Z,18.30
2023-04-24T17:36:07.673Z,18.10
2023-04-24T17:38:34.951Z,16.00
2023-04-24T17:41:02.091Z,19.80
2023-04-24T17:43:29.274Z,25.20
2023-04-24T17:45:57.013Z,15.50
2023-04-24T17:48:24.233Z,17.00
2023-04-24T17:50:52.103Z,17.00
2023-04-24T17:53:19.200Z,27.30
2023-04-24T17:55:49.452Z,25.10
2023-04-24T17:58:17.229Z,30.10
2023-04-24T18:00:44.541Z,24.40
2023-04-24T18:03:12.525Z,26.20
2023-04-24T18:05:39.977Z,20.60
2023-04-24T18:08:07.960Z,28.10
2023-04-24T18:10:38.451Z,25.20
2023-04-24T18:13:05.848Z,24.40
2023-04-24T18:15:33.171Z,26.40
2023-04-24T18:18:00.661Z,36.10
2023-04-24T18:20:27.995Z,20.50
2023-04-24T18:22:55.880Z,23.50
2023-04-24T18:25:27.195Z,20.50
2023-04-24T18:27:56.034Z,17.80
2023-04-24T18:30:24.502Z,21.40
2023-04-24T18:32:53.589Z,34.10
2023-04-24T18:35:21.371Z,32.90
2023-04-24T18:37:48.654Z,30.40
2023-04-24T18:40:15.948Z,32.70
2023-04-24T18:42:43.308Z,33.20
2023-04-24T18:45:13.852Z,25.40
2023-04-24T18:47:42.481Z,26.80
2023-04-24T18:50:10.031Z,31.80
2023-04-24T18:52:37.188Z,28.10
2023-04-24T18:55:04.601Z,29.90
2023-04-24T18:57:31.896Z,27.40
2023-04-24T18:59:59.031Z,35.40
2023-04-24T19:02:26.772Z,25.20
2023-04-24T19:04:54.157Z,38.70
2023-04-24T19:07:21.638Z,32.80
2023-04-24T19:09:48.954Z,33.00
2023-04-24T19:12:16.283Z,33.80
2023-04-24T19:15:35.039Z,39.60
2023-04-24T19:18:02.646Z,35.40
2023-04-24T19:20:30.067Z,36.10
2023-04-24T19:22:57.408Z,36.90
2023-04-24T19:25:25.482Z,27.80
2023-04-24T19:27:52.818Z,35.20
2023-04-24T19:30:20.189Z,33.60
2023-04-24T19:32:47.436Z,32.10
2023-04-24T19:35:14.719Z,33.90
2023-04-24T19:37:42.174Z,30.10
2023-04-24T19:40:09.636Z,30.70
2023-04-24T19:45:11.399Z,29.80
2023-04-24T19:47:39.339Z,20.50
2023-04-24T19:50:07.588Z,20.00
2023-04-24T19:52:34.926Z,20.70
2023-04-24T19:55:02.345Z,22.40
2023-04-24T19:57:29.732Z,20.80
2023-04-24T19:59:56.914Z,18.00
2023-04-24T20:02:24.636Z,13.50
2023-04-24T20:04:52.417Z,14.20
2023-04-24T20:07:19.895Z,22.10
2023-04-24T20:09:47.152Z,33.60
2023-04-24T20:12:14.415Z,35.50
2023-04-24T20:14:41.835Z,34.40
2023-04-24T20:17:09.905Z,33.10
2023-04-24T20:19:37.016Z,27.40
2023-04-24T20:22:04.199Z,28.40
2023-04-24T20:24:31.360Z,26.00
2023-04-24T20:26:58.574Z,27.60
2023-04-24T20:29:26.622Z,28.60
2023-04-24T20:31:53.723Z,22.20
2023-04-24T20:34:21.979Z,28.70
2023-04-24T20:36:49.921Z,26.50
2023-04-24T20:39:17.549Z,21.20
2023-04-24T20:41:46.536Z,43.10
2023-04-24T20:44:13.713Z,35.80
2023-04-24T20:46:40.775Z,31.10
2023-04-24T20:49:08.010Z,30.50
2023-04-24T20:51:35.068Z,31.00
2023-04-24T20:54:05.241Z,34.60
2023-04-24T20:56:32.365Z,35.30
2023-04-24T20:59:00.832Z,32.50
2023-04-24T21:01:30.425Z,39.10
2023-04-24T21:03:59.097Z,43.40
2023-04-24T21:06:27.616Z,37.10
2023-04-24T21:08:54.896Z,37.30
2023-04-24T21:11:22.024Z,37.10
2023-04-24T21:13:49.375Z,38.30
2023-04-24T21:16:17.304Z,41.70
2023-04-24T21:18:44.977Z,34.60
2023-04-24T21:21:12.275Z,40.80
2023-04-24T21:23:39.497Z,33.60
2023-04-24T21:26:08.273Z,35.50
2023-04-24T21:28:38.172Z,42.90
2023-04-24T21:31:06.093Z,43.40
2023-04-24T21:33:33.276Z,45.80
2023-04-24T21:36:01.961Z,39.40
2023-04-24T21:38:29.262Z,47.00
2023-04-24T21:40:56.491Z,55.80
2023-04-24T21:43:30.786Z,57.60
2023-04-24T21:46:04.654Z,57.00
2023-04-24T21:48:31.845Z,72.00
2023-04-24T21:50:59.065Z,78.10
2023-04-24T21:53:26.407Z,73.40
2023-04-24T21:55:53.578Z,70.50
2023-04-24T21:58:22.081Z,71.10
2023-04-24T22:00:49.381Z,68.70
2023-04-24T22:03:17.415Z,69.70
2023-04-24T22:05:45.321Z,59.60
2023-04-24T22:08:12.579Z,54.70
2023-04-24T22:10:39.709Z,55.70
2023-04-24T22:13:07.211Z,46.40
2023-04-24T22:15:34.387Z,44.20
2023-04-24T22:18:02.029Z,48.80
2023-04-24T22:20:30.478Z,51.90
2023-04-24T22:22:58.172Z,50.50
2023-04-24T22:25:26.664Z,48.80
2023-04-24T22:27:54.253Z,46.80
2023-04-24T22:30:21.942Z,39.60
2023-04-24T22:32:49.176Z,42.80
2023-04-24T22:35:16.870Z,44.00
2023-04-24T22:37:55.976Z,42.50
2023-04-24T22:40:25.020Z,49.80
2023-04-24T22:42:52.935Z,40.40
2023-04-24T22:45:23.775Z,37.40
2023-04-24T22:47:51.192Z,34.50
2023-04-24T22:50:20.634Z,42.50
2023-04-24T22:52:48.165Z,39.40
2023-04-24T22:55:15.340Z,41.30
2023-04-24T22:57:42.702Z,43.80
2023-04-24T23:00:14.014Z,38.30
2023-04-24T23:02:43.235Z,43.40
2023-04-24T23:05:10.740Z,39.20
2023-04-24T23:07:38.546Z,42.20
2023-04-24T23:10:08.750Z,44.10
2023-04-24T23:12:36.104Z,38.40
2023-04-24T23:15:04.735Z,36.40
2023-04-24T23:17:32.423Z,42.60
2023-04-24T23:20:00.664Z,39.40
2023-04-24T23:22:27.968Z,41.30
2023-04-24T23:24:56.478Z,37.80
2023-04-24T23:27:25.998Z,35.40
2023-04-24T23:29:54.664Z,37.60
2023-04-24T23:32:23.120Z,37.10
2023-04-24T23:34:50.434Z,36.00
2023-04-24T23:37:19.149Z,44.90
2023-04-24T23:39:47.882Z,40.40
2023-04-24T23:42:15.493Z,36.40
2023-04-24T23:44:42.648Z,41.10
2023-04-24T23:47:09.718Z,43.80
2023-04-24T23:49:39.157Z,40.70
2023-04-24T23:52:06.781Z,45.90
2023-04-24T23:54:35.410Z,41.00
2023-04-24T23:57:02.926Z,45.20
2023-04-24T23:59:31.320Z,48.30
